sensor_id;sensor_type;location;lat;lon;timestamp;P1;durP1;ratioP1;P2;durP2;ratioP2
19854;SDS011;10088;47.946;2.532;2024-03-08T00:00:51;25.37;;;12.20;;
19854;SDS011;10088;47.946;2.532;2024-03-08T00:03:16;24.87;;;13.00;;
19854;SDS011;10088;47.946;2.532;2024-03-08T00:05:42;24.40;;;12.60;;
19854;SDS011;10088;47.946;2.532;2024-03-08T00:08:07;23.57;;;11.90;;
19854;SDS011;10088;47.946;2.532;2024-03-08T00:10:35;25.53;;;13.57;;
19854;SDS011;10088;47.946;2.532;2024-03-08T00:13:00;20.30;;;12.37;;
19854;SDS011;10088;47.946;2.532;2024-03-08T00:15:25;18.57;;;10.87;;
19854;SDS011;10088;47.946;2.532;2024-03-08T00:17:51;18.87;;;11.67;;
19854;SDS011;10088;47.946;2.532;2024-03-08T00:20:16;17.70;;;10.90;;
19854;SDS011;10088;47.946;2.532;2024-03-08T00:22:44;15.73;;;9.93;;
19854;SDS011;10088;47.946;2.532;2024-03-08T00:25:11;19.37;;;14.20;;
19854;SDS011;10088;47.946;2.532;2024-03-08T00:27:39;19.83;;;10.60;;
19854;SDS011;10088;47.946;2.532;2024-03-08T00:30:06;13.43;;;8.10;;
19854;SDS011;10088;47.946;2.532;2024-03-08T00:32:31;16.70;;;10.23;;
19854;SDS011;10088;47.946;2.532;2024-03-08T00:34:57;16.60;;;9.10;;
19854;SDS011;10088;47.946;2.532;2024-03-08T00:37:22;16.57;;;9.50;;
19854;SDS011;10088;47.946;2.532;2024-03-08T00:39:48;15.23;;;8.97;;
19854;SDS011;10088;47.946;2.532;2024-03-08T00:42:14;16.73;;;9.13;;
19854;SDS011;10088;47.946;2.532;2024-03-08T00:44:40;15.43;;;9.13;;
19854;SDS011;10088;47.946;2.532;2024-03-08T00:47:05;16.10;;;9.20;;
19854;SDS011;10088;47.946;2.532;2024-03-08T00:49:30;15.87;;;9.97;;
19854;SDS011;10088;47.946;2.532;2024-03-08T00:51:56;17.60;;;9.67;;
19854;SDS011;10088;47.946;2.532;2024-03-08T00:54:21;24.60;;;10.17;;
19854;SDS011;10088;47.946;2.532;2024-03-08T00:56:46;16.00;;;8.93;;
19854;SDS011;10088;47.946;2.532;2024-03-08T00:59:12;17.33;;;9.60;;
19854;SDS011;10088;47.946;2.532;2024-03-08T01:01:39;16.90;;;9.73;;
19854;SDS011;10088;47.946;2.532;2024-03-08T01:04:04;19.33;;;10.63;;
19854;SDS011;10088;47.946;2.532;2024-03-08T01:06:30;17.33;;;9.40;;
19854;SDS011;10088;47.946;2.532;2024-03-08T01:08:55;17.03;;;11.03;;
19854;SDS011;10088;47.946;2.532;2024-03-08T01:11:20;18.07;;;10.87;;
19854;SDS011;10088;47.946;2.532;2024-03-08T01:13:46;20.40;;;10.77;;
19854;SDS011;10088;47.946;2.532;2024-03-08T01:16:12;19.47;;;10.30;;
19854;SDS011;10088;47.946;2.532;2024-03-08T01:18:37;17.07;;;9.60;;
19854;SDS011;10088;47.946;2.532;2024-03-08T01:21:03;18.27;;;10.53;;
19854;SDS011;10088;47.946;2.532;2024-03-08T01:23:29;17.60;;;9.90;;
19854;SDS011;10088;47.946;2.532;2024-03-08T01:25:54;18.50;;;10.03;;
19854;SDS011;10088;47.946;2.532;2024-03-08T01:28:25;19.90;;;10.97;;
19854;SDS011;10088;47.946;2.532;2024-03-08T01:30:50;18.50;;;10.73;;
19854;SDS011;10088;47.946;2.532;2024-03-08T01:33:21;20.33;;;11.37;;
19854;SDS011;10088;47.946;2.532;2024-03-08T01:35:47;17.87;;;10.30;;
19854;SDS011;10088;47.946;2.532;2024-03-08T01:38:13;17.23;;;10.27;;
19854;SDS011;10088;47.946;2.532;2024-03-08T01:40:38;21.23;;;10.30;;
19854;SDS011;10088;47.946;2.532;2024-03-08T01:43:19;16.33;;;10.13;;
19854;SDS011;10088;47.946;2.532;2024-03-08T01:45:44;17.10;;;10.17;;
19854;SDS011;10088;47.946;2.532;2024-03-08T01:48:10;18.10;;;10.17;;
19854;SDS011;10088;47.946;2.532;2024-03-08T01:50:35;19.37;;;9.83;;
19854;SDS011;10088;47.946;2.532;2024-03-08T01:53:01;17.77;;;9.90;;
19854;SDS011;10088;47.946;2.532;2024-03-08T01:55:27;20.00;;;10.67;;
19854;SDS011;10088;47.946;2.532;2024-03-08T01:57:52;17.30;;;11.50;;
19854;SDS011;10088;47.946;2.532;2024-03-08T02:00:18;20.50;;;10.73;;
19854;SDS011;10088;47.946;2.532;2024-03-08T02:02:44;21.17;;;11.83;;
19854;SDS011;10088;47.946;2.532;2024-03-08T02:05:10;16.43;;;10.07;;
19854;SDS011;10088;47.946;2.532;2024-03-08T02:07:36;19.47;;;10.30;;
19854;SDS011;10088;47.946;2.532;2024-03-08T02:10:01;18.87;;;10.70;;
19854;SDS011;10088;47.946;2.532;2024-03-08T02:12:26;17.13;;;10.30;;
19854;SDS011;10088;47.946;2.532;2024-03-08T02:14:53;17.67;;;11.00;;
19854;SDS011;10088;47.946;2.532;2024-03-08T02:17:18;18.27;;;11.33;;
19854;SDS011;10088;47.946;2.532;2024-03-08T02:19:44;19.93;;;10.93;;
19854;SDS011;10088;47.946;2.532;2024-03-08T02:22:09;17.37;;;9.90;;
19854;SDS011;10088;47.946;2.532;2024-03-08T02:24:34;19.43;;;10.03;;
19854;SDS011;10088;47.946;2.532;2024-03-08T02:27:00;17.50;;;8.80;;
19854;SDS011;10088;47.946;2.532;2024-03-08T02:29:25;18.60;;;10.63;;
19854;SDS011;10088;47.946;2.532;2024-03-08T02:31:51;15.87;;;9.97;;
19854;SDS011;10088;47.946;2.532;2024-03-08T02:34:16;17.27;;;10.13;;
19854;SDS011;10088;47.946;2.532;2024-03-08T02:36:41;17.80;;;9.60;;
19854;SDS011;10088;47.946;2.532;2024-03-08T02:39:07;18.63;;;10.80;;
19854;SDS011;10088;47.946;2.532;2024-03-08T02:41:33;22.47;;;11.33;;
19854;SDS011;10088;47.946;2.532;2024-03-08T02:43:58;22.27;;;11.03;;
19854;SDS011;10088;47.946;2.532;2024-03-08T02:46:25;23.27;;;10.13;;
19854;SDS011;10088;47.946;2.532;2024-03-08T02:48:50;16.87;;;10.00;;
19854;SDS011;10088;47.946;2.532;2024-03-08T02:51:15;19.00;;;10.70;;
19854;SDS011;10088;47.946;2.532;2024-03-08T02:53:41;17.73;;;9.60;;
19854;SDS011;10088;47.946;2.532;2024-03-08T02:56:08;18.47;;;10.97;;
19854;SDS011;10088;47.946;2.532;2024-03-08T02:58:33;20.13;;;10.37;;
19854;SDS011;10088;47.946;2.532;2024-03-08T03:00:58;18.40;;;10.13;;
19854;SDS011;10088;47.946;2.532;2024-03-08T03:03:24;21.77;;;11.47;;
19854;SDS011;10088;47.946;2.532;2024-03-08T03:05:49;20.47;;;10.67;;
19854;SDS011;10088;47.946;2.532;2024-03-08T03:08:15;19.10;;;9.77;;
19854;SDS011;10088;47.946;2.532;2024-03-08T03:10:41;17.40;;;10.43;;
19854;SDS011;10088;47.946;2.532;2024-03-08T03:13:07;23.03;;;11.20;;
19854;SDS011;10088;47.946;2.532;2024-03-08T03:15:33;20.50;;;11.10;;
19854;SDS011;10088;47.946;2.532;2024-03-08T03:18:01;21.70;;;10.33;;
19854;SDS011;10088;47.946;2.532;2024-03-08T03:20:27;20.67;;;10.90;;
19854;SDS011;10088;47.946;2.532;2024-03-08T03:22:57;16.03;;;9.43;;
19854;SDS011;10088;47.946;2.532;2024-03-08T03:25:22;19.43;;;10.60;;
19854;SDS011;10088;47.946;2.532;2024-03-08T03:27:54;20.53;;;10.80;;
19854;SDS011;10088;47.946;2.532;2024-03-08T03:30:22;21.60;;;10.87;;
19854;SDS011;10088;47.946;2.532;2024-03-08T03:32:50;20.20;;;11.37;;
19854;SDS011;10088;47.946;2.532;2024-03-08T03:35:19;18.97;;;11.43;;
19854;SDS011;10088;47.946;2.532;2024-03-08T03:37:45;26.30;;;11.77;;
19854;SDS011;10088;47.946;2.532;2024-03-08T03:40:21;19.13;;;10.47;;
19854;SDS011;10088;47.946;2.532;2024-03-08T03:42:48;18.30;;;11.30;;
19854;SDS011;10088;47.946;2.532;2024-03-08T03:45:13;19.03;;;10.57;;
19854;SDS011;10088;47.946;2.532;2024-03-08T03:47:39;18.80;;;10.80;;
19854;SDS011;10088;47.946;2.532;2024-03-08T03:50:05;22.77;;;11.17;;
19854;SDS011;10088;47.946;2.532;2024-03-08T03:52:31;21.70;;;10.53;;
19854;SDS011;10088;47.946;2.532;2024-03-08T03:54:56;19.00;;;11.30;;
19854;SDS011;10088;47.946;2.532;2024-03-08T03:57:22;19.30;;;9.87;;
19854;SDS011;10088;47.946;2.532;2024-03-08T03:59:48;20.70;;;10.40;;
19854;SDS011;10088;47.946;2.532;2024-03-08T04:02:13;19.07;;;10.83;;
19854;SDS011;10088;47.946;2.532;2024-03-08T04:04:38;18.47;;;10.47;;
19854;SDS011;10088;47.946;2.532;2024-03-08T04:07:04;18.47;;;10.40;;
19854;SDS011;10088;47.946;2.532;2024-03-08T04:09:30;23.53;;;11.23;;
19854;SDS011;10088;47.946;2.532;2024-03-08T04:11:55;17.57;;;10.13;;
19854;SDS011;10088;47.946;2.532;2024-03-08T04:14:21;15.23;;;9.17;;
19854;SDS011;10088;47.946;2.532;2024-03-08T04:16:48;18.40;;;10.83;;
19854;SDS011;10088;47.946;2.532;2024-03-08T04:19:13;18.80;;;10.63;;
19854;SDS011;10088;47.946;2.532;2024-03-08T04:21:39;16.77;;;10.50;;
19854;SDS011;10088;47.946;2.532;2024-03-08T04:24:04;19.13;;;10.00;;
19854;SDS011;10088;47.946;2.532;2024-03-08T04:26:30;21.77;;;10.73;;
19854;SDS011;10088;47.946;2.532;2024-03-08T04:28:56;19.30;;;10.80;;
19854;SDS011;10088;47.946;2.532;2024-03-08T04:31:21;20.73;;;11.07;;
19854;SDS011;10088;47.946;2.532;2024-03-08T04:33:47;20.37;;;10.73;;
19854;SDS011;10088;47.946;2.532;2024-03-08T04:36:12;16.47;;;9.93;;
19854;SDS011;10088;47.946;2.532;2024-03-08T04:38:38;18.27;;;10.40;;
19854;SDS011;10088;47.946;2.532;2024-03-08T04:41:06;17.57;;;9.60;;
19854;SDS011;10088;47.946;2.532;2024-03-08T04:43:31;16.87;;;10.23;;
19854;SDS011;10088;47.946;2.532;2024-03-08T04:45:56;18.90;;;10.77;;
19854;SDS011;10088;47.946;2.532;2024-03-08T04:48:22;17.67;;;10.33;;
19854;SDS011;10088;47.946;2.532;2024-03-08T04:50:47;19.77;;;11.07;;
19854;SDS011;10088;47.946;2.532;2024-03-08T04:53:12;24.07;;;10.80;;
19854;SDS011;10088;47.946;2.532;2024-03-08T04:55:38;18.70;;;10.77;;
19854;SDS011;10088;47.946;2.532;2024-03-08T04:58:04;22.50;;;11.40;;
19854;SDS011;10088;47.946;2.532;2024-03-08T05:00:31;22.57;;;10.83;;
19854;SDS011;10088;47.946;2.532;2024-03-08T05:02:56;29.03;;;13.67;;
19854;SDS011;10088;47.946;2.532;2024-03-08T05:05:21;23.97;;;11.97;;
19854;SDS011;10088;47.946;2.532;2024-03-08T05:07:47;20.77;;;11.07;;
19854;SDS011;10088;47.946;2.532;2024-03-08T05:10:13;21.93;;;11.20;;
19854;SDS011;10088;47.946;2.532;2024-03-08T05:12:42;18.43;;;10.83;;
19854;SDS011;10088;47.946;2.532;2024-03-08T05:15:08;20.73;;;11.03;;
19854;SDS011;10088;47.946;2.532;2024-03-08T05:17:33;20.50;;;11.13;;
19854;SDS011;10088;47.946;2.532;2024-03-08T05:19:59;19.73;;;10.37;;
19854;SDS011;10088;47.946;2.532;2024-03-08T05:22:24;17.20;;;10.37;;
19854;SDS011;10088;47.946;2.532;2024-03-08T05:24:51;20.73;;;11.27;;
19854;SDS011;10088;47.946;2.532;2024-03-08T05:27:16;23.57;;;13.00;;
19854;SDS011;10088;47.946;2.532;2024-03-08T05:29:41;28.33;;;18.47;;
19854;SDS011;10088;47.946;2.532;2024-03-08T05:32:06;32.17;;;18.73;;
19854;SDS011;10088;47.946;2.532;2024-03-08T05:34:32;27.07;;;16.40;;
19854;SDS011;10088;47.946;2.532;2024-03-08T05:36:57;18.27;;;10.60;;
19854;SDS011;10088;47.946;2.532;2024-03-08T05:39:23;18.93;;;11.37;;
19854;SDS011;10088;47.946;2.532;2024-03-08T05:41:49;18.87;;;11.40;;
19854;SDS011;10088;47.946;2.532;2024-03-08T05:44:15;21.67;;;10.40;;
19854;SDS011;10088;47.946;2.532;2024-03-08T05:46:44;21.07;;;11.47;;
19854;SDS011;10088;47.946;2.532;2024-03-08T05:49:11;24.43;;;13.33;;
19854;SDS011;10088;47.946;2.532;2024-03-08T05:51:37;31.63;;;17.43;;
19854;SDS011;10088;47.946;2.532;2024-03-08T05:54:05;41.03;;;23.97;;
19854;SDS011;10088;47.946;2.532;2024-03-08T05:56:36;25.07;;;14.57;;
19854;SDS011;10088;47.946;2.532;2024-03-08T05:59:02;23.10;;;12.97;;
19854;SDS011;10088;47.946;2.532;2024-03-08T06:01:28;36.90;;;21.80;;
19854;SDS011;10088;47.946;2.532;2024-03-08T06:03:53;55.40;;;31.10;;
19854;SDS011;10088;47.946;2.532;2024-03-08T06:06:21;57.57;;;30.43;;
19854;SDS011;10088;47.946;2.532;2024-03-08T06:08:46;41.70;;;22.80;;
19854;SDS011;10088;47.946;2.532;2024-03-08T06:11:14;22.70;;;13.00;;
19854;SDS011;10088;47.946;2.532;2024-03-08T06:13:40;22.93;;;12.77;;
19854;SDS011;10088;47.946;2.532;2024-03-08T06:16:05;28.23;;;16.63;;
19854;SDS011;10088;47.946;2.532;2024-03-08T06:18:33;43.00;;;25.07;;
19854;SDS011;10088;47.946;2.532;2024-03-08T06:20:59;25.93;;;15.90;;
19854;SDS011;10088;47.946;2.532;2024-03-08T06:23:24;31.73;;;19.10;;
19854;SDS011;10088;47.946;2.532;2024-03-08T06:25:49;22.20;;;12.90;;
19854;SDS011;10088;47.946;2.532;2024-03-08T06:28:15;31.03;;;18.27;;
19854;SDS011;10088;47.946;2.532;2024-03-08T06:30:40;60.43;;;35.23;;
19854;SDS011;10088;47.946;2.532;2024-03-08T06:33:05;23.83;;;12.50;;
19854;SDS011;10088;47.946;2.532;2024-03-08T06:35:32;26.23;;;16.10;;
19854;SDS011;10088;47.946;2.532;2024-03-08T06:37:58;23.23;;;11.73;;
19854;SDS011;10088;47.946;2.532;2024-03-08T06:40:23;33.73;;;17.07;;
19854;SDS011;10088;47.946;2.532;2024-03-08T06:42:48;38.27;;;16.70;;
19854;SDS011;10088;47.946;2.532;2024-03-08T06:45:13;25.10;;;14.30;;
19854;SDS011;10088;47.946;2.532;2024-03-08T06:47:44;25.57;;;13.93;;
19854;SDS011;10088;47.946;2.532;2024-03-08T06:50:10;22.60;;;12.83;;
19854;SDS011;10088;47.946;2.532;2024-03-08T06:52:36;27.20;;;13.83;;
19854;SDS011;10088;47.946;2.532;2024-03-08T06:55:01;24.87;;;14.30;;
19854;SDS011;10088;47.946;2.532;2024-03-08T06:57:28;28.97;;;13.57;;
19854;SDS011;10088;47.946;2.532;2024-03-08T06:59:54;22.57;;;12.13;;
19854;SDS011;10088;47.946;2.532;2024-03-08T07:02:19;20.63;;;11.40;;
19854;SDS011;10088;47.946;2.532;2024-03-08T07:04:49;25.33;;;13.60;;
19854;SDS011;10088;47.946;2.532;2024-03-08T07:07:14;25.20;;;13.33;;
19854;SDS011;10088;47.946;2.532;2024-03-08T07:09:40;25.43;;;14.50;;
19854;SDS011;10088;47.946;2.532;2024-03-08T07:12:07;32.53;;;16.43;;
19854;SDS011;10088;47.946;2.532;2024-03-08T07:14:33;21.83;;;12.20;;
19854;SDS011;10088;47.946;2.532;2024-03-08T07:16:58;23.63;;;11.00;;
19854;SDS011;10088;47.946;2.532;2024-03-08T07:19:23;23.90;;;13.20;;
19854;SDS011;10088;47.946;2.532;2024-03-08T07:21:49;21.00;;;12.10;;
19854;SDS011;10088;47.946;2.532;2024-03-08T07:24:14;21.00;;;11.23;;
19854;SDS011;10088;47.946;2.532;2024-03-08T07:26:42;19.90;;;10.90;;
19854;SDS011;10088;47.946;2.532;2024-03-08T07:29:08;19.20;;;10.67;;
19854;SDS011;10088;47.946;2.532;2024-03-08T07:31:33;18.97;;;10.13;;
19854;SDS011;10088;47.946;2.532;2024-03-08T07:34:37;16.03;;;10.53;;
19854;SDS011;10088;47.946;2.532;2024-03-08T07:37:05;17.00;;;9.10;;
19854;SDS011;10088;47.946;2.532;2024-03-08T07:39:30;16.27;;;10.17;;
19854;SDS011;10088;47.946;2.532;2024-03-08T07:41:55;17.37;;;10.40;;
19854;SDS011;10088;47.946;2.532;2024-03-08T07:44:20;13.70;;;9.23;;
19854;SDS011;10088;47.946;2.532;2024-03-08T07:46:46;21.17;;;12.13;;
19854;SDS011;10088;47.946;2.532;2024-03-08T07:49:11;19.57;;;10.97;;
19854;SDS011;10088;47.946;2.532;2024-03-08T07:51:37;13.30;;;8.43;;
19854;SDS011;10088;47.946;2.532;2024-03-08T07:54:03;13.23;;;8.00;;
19854;SDS011;10088;47.946;2.532;2024-03-08T07:56:29;11.83;;;7.00;;
19854;SDS011;10088;47.946;2.532;2024-03-08T07:58:54;9.50;;;7.03;;
19854;SDS011;10088;47.946;2.532;2024-03-08T08:01:20;11.60;;;7.87;;
19854;SDS011;10088;47.946;2.532;2024-03-08T08:03:45;11.40;;;6.93;;
19854;SDS011;10088;47.946;2.532;2024-03-08T08:06:11;11.63;;;7.57;;
19854;SDS011;10088;47.946;2.532;2024-03-08T08:08:44;10.90;;;7.73;;
19854;SDS011;10088;47.946;2.532;2024-03-08T08:11:09;12.47;;;7.33;;
19854;SDS011;10088;47.946;2.532;2024-03-08T08:13:36;9.20;;;6.07;;
19854;SDS011;10088;47.946;2.532;2024-03-08T08:16:02;11.10;;;6.10;;
19854;SDS011;10088;47.946;2.532;2024-03-08T08:18:27;9.07;;;5.50;;
19854;SDS011;10088;47.946;2.532;2024-03-08T08:20:54;7.93;;;5.50;;
19854;SDS011;10088;47.946;2.532;2024-03-08T08:23:19;8.93;;;5.80;;
19854;SDS011;10088;47.946;2.532;2024-03-08T08:25:45;8.67;;;5.90;;
19854;SDS011;10088;47.946;2.532;2024-03-08T08:28:11;7.03;;;5.20;;
19854;SDS011;10088;47.946;2.532;2024-03-08T08:30:37;7.17;;;5.00;;
19854;SDS011;10088;47.946;2.532;2024-03-08T08:33:03;9.17;;;5.77;;
19854;SDS011;10088;47.946;2.532;2024-03-08T08:35:30;9.23;;;5.63;;
19854;SDS011;10088;47.946;2.532;2024-03-08T08:37:55;8.03;;;5.43;;
19854;SDS011;10088;47.946;2.532;2024-03-08T08:40:21;8.83;;;4.47;;
19854;SDS011;10088;47.946;2.532;2024-03-08T08:42:47;8.20;;;4.87;;
19854;SDS011;10088;47.946;2.532;2024-03-08T08:45:13;11.37;;;5.57;;
19854;SDS011;10088;47.946;2.532;2024-03-08T08:47:38;7.60;;;5.03;;
19854;SDS011;10088;47.946;2.532;2024-03-08T08:50:07;9.07;;;5.10;;
19854;SDS011;10088;47.946;2.532;2024-03-08T08:52:32;6.10;;;4.63;;
19854;SDS011;10088;47.946;2.532;2024-03-08T08:54:59;6.53;;;4.30;;
19854;SDS011;10088;47.946;2.532;2024-03-08T08:57:25;7.60;;;4.40;;
19854;SDS011;10088;47.946;2.532;2024-03-08T08:59:52;6.07;;;4.20;;
19854;SDS011;10088;47.946;2.532;2024-03-08T09:02:17;5.87;;;3.90;;
19854;SDS011;10088;47.946;2.532;2024-03-08T09:04:45;7.47;;;3.07;;
19854;SDS011;10088;47.946;2.532;2024-03-08T09:07:11;6.37;;;4.20;;
19854;SDS011;10088;47.946;2.532;2024-03-08T09:09:36;6.90;;;4.13;;
19854;SDS011;10088;47.946;2.532;2024-03-08T09:12:01;4.77;;;3.33;;
19854;SDS011;10088;47.946;2.532;2024-03-08T09:14:27;6.80;;;3.57;;
19854;SDS011;10088;47.946;2.532;2024-03-08T09:16:52;5.03;;;3.63;;
19854;SDS011;10088;47.946;2.532;2024-03-08T09:19:17;4.23;;;3.50;;
19854;SDS011;10088;47.946;2.532;2024-03-08T09:21:44;5.40;;;3.93;;
19854;SDS011;10088;47.946;2.532;2024-03-08T09:24:09;6.17;;;3.70;;
19854;SDS011;10088;47.946;2.532;2024-03-08T09:26:35;5.43;;;4.00;;
19854;SDS011;10088;47.946;2.532;2024-03-08T09:29:00;7.30;;;3.93;;
19854;SDS011;10088;47.946;2.532;2024-03-08T09:31:26;7.57;;;3.20;;
19854;SDS011;10088;47.946;2.532;2024-03-08T09:33:51;7.10;;;3.30;;
19854;SDS011;10088;47.946;2.532;2024-03-08T09:36:16;6.77;;;3.70;;
19854;SDS011;10088;47.946;2.532;2024-03-08T09:38:42;6.17;;;3.30;;
19854;SDS011;10088;47.946;2.532;2024-03-08T09:41:07;5.33;;;3.63;;
19854;SDS011;10088;47.946;2.532;2024-03-08T09:43:34;5.33;;;3.40;;
19854;SDS011;10088;47.946;2.532;2024-03-08T09:46:00;3.83;;;3.00;;
19854;SDS011;10088;47.946;2.532;2024-03-08T09:48:25;3.47;;;2.70;;
19854;SDS011;10088;47.946;2.532;2024-03-08T09:50:51;6.30;;;3.70;;
19854;SDS011;10088;47.946;2.532;2024-03-08T09:53:16;7.20;;;3.37;;
19854;SDS011;10088;47.946;2.532;2024-03-08T09:55:42;3.73;;;3.10;;
19854;SDS011;10088;47.946;2.532;2024-03-08T09:58:13;4.10;;;3.17;;
19854;SDS011;10088;47.946;2.532;2024-03-08T10:01:01;5.10;;;2.90;;
19854;SDS011;10088;47.946;2.532;2024-03-08T10:03:32;6.50;;;3.13;;
19854;SDS011;10088;47.946;2.532;2024-03-08T10:05:58;6.90;;;3.10;;
19854;SDS011;10088;47.946;2.532;2024-03-08T10:08:29;3.53;;;2.70;;
19854;SDS011;10088;47.946;2.532;2024-03-08T10:10:55;3.20;;;2.20;;
19854;SDS011;10088;47.946;2.532;2024-03-08T10:13:20;4.67;;;2.60;;
19854;SDS011;10088;47.946;2.532;2024-03-08T10:15:45;4.30;;;2.30;;
19854;SDS011;10088;47.946;2.532;2024-03-08T10:18:11;3.63;;;2.60;;
19854;SDS011;10088;47.946;2.532;2024-03-08T10:20:36;2.80;;;1.30;;
19854;SDS011;10088;47.946;2.532;2024-03-08T10:23:02;2.63;;;1.07;;
19854;SDS011;10088;47.946;2.532;2024-03-08T10:25:31;3.20;;;1.00;;
19854;SDS011;10088;47.946;2.532;2024-03-08T10:27:56;6.10;;;1.37;;
19854;SDS011;10088;47.946;2.532;2024-03-08T10:30:21;3.70;;;1.13;;
19854;SDS011;10088;47.946;2.532;2024-03-08T10:32:47;1.70;;;1.10;;
19854;SDS011;10088;47.946;2.532;2024-03-08T10:35:12;3.20;;;1.00;;
19854;SDS011;10088;47.946;2.532;2024-03-08T10:37:45;1.33;;;0.83;;
19854;SDS011;10088;47.946;2.532;2024-03-08T10:40:15;1.63;;;0.90;;
19854;SDS011;10088;47.946;2.532;2024-03-08T10:43:03;4.80;;;1.40;;
19854;SDS011;10088;47.946;2.532;2024-03-08T10:45:35;2.43;;;1.13;;
19854;SDS011;10088;47.946;2.532;2024-03-08T10:50:45;2.63;;;1.03;;
19854;SDS011;10088;47.946;2.532;2024-03-08T10:53:13;1.83;;;1.20;;
19854;SDS011;10088;47.946;2.532;2024-03-08T10:55:39;2.00;;;1.50;;
19854;SDS011;10088;47.946;2.532;2024-03-08T10:58:05;1.40;;;1.00;;
19854;SDS011;10088;47.946;2.532;2024-03-08T11:00:33;1.87;;;1.27;;
19854;SDS011;10088;47.946;2.532;2024-03-08T11:02:58;3.33;;;1.10;;
19854;SDS011;10088;47.946;2.532;2024-03-08T11:08:20;2.20;;;1.30;;
19854;SDS011;10088;47.946;2.532;2024-03-08T11:10:52;2.50;;;1.17;;
19854;SDS011;10088;47.946;2.532;2024-03-08T11:16:12;2.50;;;1.30;;
19854;SDS011;10088;47.946;2.532;2024-03-08T11:18:37;3.13;;;1.37;;
19854;SDS011;10088;47.946;2.532;2024-03-08T11:21:03;5.37;;;1.70;;
19854;SDS011;10088;47.946;2.532;2024-03-08T11:23:32;3.73;;;1.37;;
19854;SDS011;10088;47.946;2.532;2024-03-08T11:25:58;4.90;;;2.10;;
19854;SDS011;10088;47.946;2.532;2024-03-08T11:28:23;5.17;;;3.20;;
19854;SDS011;10088;47.946;2.532;2024-03-08T11:33:27;4.10;;;1.30;;
19854;SDS011;10088;47.946;2.532;2024-03-08T11:36:12;2.70;;;1.23;;
19854;SDS011;10088;47.946;2.532;2024-03-08T11:38:42;2.90;;;1.30;;
19854;SDS011;10088;47.946;2.532;2024-03-08T11:41:09;4.53;;;2.70;;
19854;SDS011;10088;47.946;2.532;2024-03-08T11:43:37;2.40;;;1.17;;
19854;SDS011;10088;47.946;2.532;2024-03-08T11:46:08;3.50;;;1.70;;
19854;SDS011;10088;47.946;2.532;2024-03-08T11:48:34;3.43;;;1.03;;
19854;SDS011;10088;47.946;2.532;2024-03-08T11:51:01;4.30;;;1.73;;
19854;SDS011;10088;47.946;2.532;2024-03-08T11:53:26;2.97;;;1.50;;
19854;SDS011;10088;47.946;2.532;2024-03-08T11:55:52;3.00;;;1.40;;
19854;SDS011;10088;47.946;2.532;2024-03-08T11:58:17;5.03;;;1.80;;
19854;SDS011;10088;47.946;2.532;2024-03-08T12:00:43;4.10;;;1.53;;
19854;SDS011;10088;47.946;2.532;2024-03-08T12:03:11;9.43;;;8.47;;
19854;SDS011;10088;47.946;2.532;2024-03-08T12:05:37;3.87;;;1.57;;
19854;SDS011;10088;47.946;2.532;2024-03-08T12:08:03;2.63;;;1.60;;
19854;SDS011;10088;47.946;2.532;2024-03-08T12:10:30;2.00;;;1.20;;
19854;SDS011;10088;47.946;2.532;2024-03-08T12:12:56;6.20;;;5.03;;
19854;SDS011;10088;47.946;2.532;2024-03-08T12:15:24;5.23;;;2.53;;
19854;SDS011;10088;47.946;2.532;2024-03-08T12:17:50;4.23;;;1.73;;
19854;SDS011;10088;47.946;2.532;2024-03-08T12:22:46;1.53;;;0.97;;
19854;SDS011;10088;47.946;2.532;2024-03-08T12:25:12;2.57;;;1.30;;
19854;SDS011;10088;47.946;2.532;2024-03-08T12:27:40;2.67;;;1.17;;
19854;SDS011;10088;47.946;2.532;2024-03-08T12:30:19;3.53;;;2.80;;
19854;SDS011;10088;47.946;2.532;2024-03-08T12:32:59;2.90;;;1.20;;
19854;SDS011;10088;47.946;2.532;2024-03-08T12:35:25;1.87;;;0.97;;
19854;SDS011;10088;47.946;2.532;2024-03-08T12:37:54;3.07;;;0.90;;
19854;SDS011;10088;47.946;2.532;2024-03-08T12:40:30;2.47;;;1.50;;
19854;SDS011;10088;47.946;2.532;2024-03-08T12:42:56;1.97;;;1.10;;
19854;SDS011;10088;47.946;2.532;2024-03-08T12:45:22;2.83;;;1.00;;
19854;SDS011;10088;47.946;2.532;2024-03-08T12:47:49;1.67;;;1.00;;
19854;SDS011;10088;47.946;2.532;2024-03-08T12:50:14;2.63;;;1.00;;
19854;SDS011;10088;47.946;2.532;2024-03-08T12:52:41;1.93;;;0.90;;
19854;SDS011;10088;47.946;2.532;2024-03-08T12:55:07;2.00;;;1.10;;
19854;SDS011;10088;47.946;2.532;2024-03-08T12:57:33;1.73;;;0.70;;
19854;SDS011;10088;47.946;2.532;2024-03-08T13:00:00;1.80;;;0.97;;
19854;SDS011;10088;47.946;2.532;2024-03-08T13:02:25;1.60;;;1.07;;
19854;SDS011;10088;47.946;2.532;2024-03-08T13:04:51;1.53;;;0.70;;
19854;SDS011;10088;47.946;2.532;2024-03-08T13:07:22;1.97;;;0.97;;
19854;SDS011;10088;47.946;2.532;2024-03-08T13:09:48;3.00;;;1.20;;
19854;SDS011;10088;47.946;2.532;2024-03-08T13:12:14;1.47;;;1.03;;
19854;SDS011;10088;47.946;2.532;2024-03-08T13:14:40;2.13;;;0.97;;
19854;SDS011;10088;47.946;2.532;2024-03-08T13:17:05;4.37;;;1.10;;
19854;SDS011;10088;47.946;2.532;2024-03-08T13:19:35;4.87;;;1.03;;
19854;SDS011;10088;47.946;2.532;2024-03-08T13:22:01;2.70;;;1.03;;
19854;SDS011;10088;47.946;2.532;2024-03-08T13:24:29;2.07;;;0.93;;
19854;SDS011;10088;47.946;2.532;2024-03-08T13:26:54;1.47;;;1.00;;
19854;SDS011;10088;47.946;2.532;2024-03-08T13:29:20;1.97;;;0.80;;
19854;SDS011;10088;47.946;2.532;2024-03-08T13:31:46;0.93;;;0.77;;
19854;SDS011;10088;47.946;2.532;2024-03-08T13:34:14;1.73;;;0.93;;
19854;SDS011;10088;47.946;2.532;2024-03-08T13:36:40;2.93;;;1.10;;
19854;SDS011;10088;47.946;2.532;2024-03-08T13:39:09;0.90;;;0.67;;
19854;SDS011;10088;47.946;2.532;2024-03-08T13:41:40;3.57;;;1.30;;
19854;SDS011;10088;47.946;2.532;2024-03-08T13:44:06;2.33;;;1.17;;
19854;SDS011;10088;47.946;2.532;2024-03-08T13:46:32;1.97;;;0.80;;
19854;SDS011;10088;47.946;2.532;2024-03-08T13:48:57;1.83;;;0.70;;
19854;SDS011;10088;47.946;2.532;2024-03-08T13:51:30;1.20;;;0.80;;
19854;SDS011;10088;47.946;2.532;2024-03-08T13:53:55;3.77;;;0.80;;
19854;SDS011;10088;47.946;2.532;2024-03-08T13:56:21;1.43;;;0.70;;
19854;SDS011;10088;47.946;2.532;2024-03-08T13:58:46;3.13;;;0.80;;
19854;SDS011;10088;47.946;2.532;2024-03-08T14:01:11;2.63;;;1.30;;
19854;SDS011;10088;47.946;2.532;2024-03-08T14:03:37;4.17;;;0.83;;
19854;SDS011;10088;47.946;2.532;2024-03-08T14:06:03;2.60;;;0.80;;
19854;SDS011;10088;47.946;2.532;2024-03-08T14:08:28;1.97;;;1.10;;
19854;SDS011;10088;47.946;2.532;2024-03-08T14:10:54;3.17;;;0.60;;
19854;SDS011;10088;47.946;2.532;2024-03-08T14:13:19;1.90;;;0.70;;
19854;SDS011;10088;47.946;2.532;2024-03-08T14:15:44;1.47;;;0.87;;
19854;SDS011;10088;47.946;2.532;2024-03-08T14:18:11;1.43;;;0.70;;
19854;SDS011;10088;47.946;2.532;2024-03-08T14:20:38;2.10;;;0.90;;
19854;SDS011;10088;47.946;2.532;2024-03-08T14:23:03;2.90;;;0.63;;
19854;SDS011;10088;47.946;2.532;2024-03-08T14:25:31;1.97;;;0.73;;
19854;SDS011;10088;47.946;2.532;2024-03-08T14:27:56;1.97;;;0.80;;
19854;SDS011;10088;47.946;2.532;2024-03-08T14:30:32;3.23;;;0.93;;
19854;SDS011;10088;47.946;2.532;2024-03-08T14:33:06;2.67;;;0.67;;
19854;SDS011;10088;47.946;2.532;2024-03-08T14:35:34;1.77;;;0.80;;
19854;SDS011;10088;47.946;2.532;2024-03-08T14:37:59;1.30;;;0.70;;
19854;SDS011;10088;47.946;2.532;2024-03-08T14:40:25;2.70;;;0.80;;
19854;SDS011;10088;47.946;2.532;2024-03-08T14:42:51;2.03;;;0.80;;